Time;durP1;ratioP1;P1;durP2;ratioP2;P2;SDS_P1;SDS_P2;PMS_P1;PMS_P2;Temp;Humidity;BMP_temperature;BMP_pressure;BME280_temperature;BME280_humidity;BME280_pressure;Samples;Min_cycle;Max_cycle;Signal;HPM_P1;HPM_P2
2023/10/29 00:02:17;;;;;;;11.15;8.65;;;;;;;10.18;100.00;98600.03;5033059;28;20076;-84
2023/10/29 00:04:43;;;;;;;11.82;8.63;;;;;;;10.26;100.00;98610.84;5033267;28;20033;-85
2023/10/29 00:07:08;;;;;;;15.55;9.73;;;;;;;10.33;100.00;98609.53;5032681;28;20028;-84
2023/10/29 00:09:33;;;;;;;15.50;9.05;;;;;;;10.24;100.00;98594.47;5033069;28;20033;-84
2023/10/29 00:11:59;;;;;;;15.80;9.95;;;;;;;10.17;100.00;98581.00;5032774;28;20075;-84
2023/10/29 00:14:24;;;;;;;15.05;9.95;;;;;;;10.23;100.00;98592.78;5032637;28;20029;-84
2023/10/29 00:16:50;;;;;;;15.45;10.18;;;;;;;10.23;100.00;98596.22;5032468;28;20041;-84
2023/10/29 00:19:15;;;;;;;12.40;9.70;;;;;;;10.44;100.00;98624.47;5033278;28;20037;-84
2023/10/29 00:21:41;;;;;;;13.80;9.98;;;;;;;10.33;100.00;98612.16;5033218;28;20484;-84
2023/10/29 00:24:07;;;;;;;13.38;9.98;;;;;;;10.48;100.00;98642.41;5032576;28;20044;-85
2023/10/29 00:26:32;;;;;;;16.27;10.43;;;;;;;10.28;100.00;98610.72;5032721;28;20029;-84
2023/10/29 00:28:57;;;;;;;13.23;8.63;;;;;;;10.46;100.00;98633.03;5031125;28;20026;-84
2023/10/29 00:31:24;;;;;;;12.95;8.70;;;;;;;10.47;100.00;98640.75;5032549;28;20097;-84
2023/10/29 00:33:49;;;;;;;10.90;8.73;;;;;;;10.43;100.00;98635.81;5032554;28;20032;-85
2023/10/29 00:36:15;;;;;;;11.85;7.57;;;;;;;10.12;100.00;98587.41;5032431;28;20033;-85
2023/10/29 00:38:40;;;;;;;13.18;7.93;;;;;;;10.10;100.00;98605.72;5032429;28;20049;-85
2023/10/29 00:41:06;;;;;;;9.27;7.15;;;;;;;10.09;100.00;98619.66;5032251;28;20108;-84
2023/10/29 00:43:40;;;;;;;11.48;8.02;;;;;;;10.16;100.00;98638.34;5032498;28;20099;-84
2023/10/29 00:46:06;;;;;;;14.45;8.15;;;;;;;10.17;100.00;98655.63;5032037;28;20029;-84
2023/10/29 00:48:32;;;;;;;14.02;9.02;;;;;;;9.91;100.00;98624.22;5032759;28;20029;-84
2023/10/29 00:50:58;;;;;;;12.82;7.90;;;;;;;9.97;100.00;98643.81;5032165;28;20047;-84
2023/10/29 00:53:24;;;;;;;13.57;7.43;;;;;;;9.93;100.00;98650.94;5031098;28;20461;-84
2023/10/29 00:55:51;;;;;;;12.35;7.75;;;;;;;9.66;100.00;98616.22;5032028;28;20025;-85
2023/10/29 00:58:19;;;;;;;14.10;8.18;;;;;;;9.74;100.00;98646.03;5030985;28;20029;-85
2023/10/29 01:00:45;;;;;;;9.30;7.80;;;;;;;9.74;100.00;98642.59;5032387;28;20078;-84
2023/10/29 01:03:10;;;;;;;11.73;8.07;;;;;;;9.60;100.00;98635.59;5030824;28;20037;-84
2023/10/29 01:05:36;;;;;;;11.63;7.75;;;;;;;9.46;100.00;98618.19;5032034;28;20366;-84
2023/10/29 01:08:02;;;;;;;12.52;7.97;;;;;;;9.52;100.00;98639.56;5031875;28;20094;-84
2023/10/29 01:10:27;;;;;;;10.90;7.72;;;;;;;9.34;100.00;98610.28;5032061;28;20075;-85
2023/10/29 01:12:52;;;;;;;11.73;8.52;;;;;;;9.29;100.00;98615.75;5031755;28;20065;-84
2023/10/29 01:15:18;;;;;;;10.45;7.60;;;;;;;9.16;100.00;98620.81;5031872;28;20032;-84
2023/10/29 01:17:43;;;;;;;9.65;7.78;;;;;;;9.21;100.00;98631.78;5032052;28;20025;-85
2023/10/29 01:20:11;;;;;;;11.77;8.27;;;;;;;9.17;100.00;98627.69;5028971;28;20535;-84
2023/10/29 01:22:36;;;;;;;13.23;8.57;;;;;;;9.04;100.00;98615.47;5029336;28;20038;-85
2023/10/29 01:25:07;;;;;;;12.60;8.55;;;;;;;8.90;100.00;98598.94;5029437;28;20041;-85
2023/10/29 01:27:33;;;;;;;11.90;8.88;;;;;;;9.14;100.00;98635.66;5016774;28;20037;-85
2023/10/29 01:29:58;;;;;;;10.77;9.02;;;;;;;8.91;100.00;98604.94;5033329;28;20041;-85
2023/10/29 01:32:23;;;;;;;16.08;8.15;;;;;;;8.85;100.00;98602.69;5033581;28;20029;-85
2023/10/29 01:34:50;;;;;;;13.18;8.10;;;;;;;8.78;100.00;98597.03;5033459;28;20100;-85
2023/10/29 01:37:15;;;;;;;9.13;7.97;;;;;;;8.81;100.00;98606.41;5016285;28;20081;-85
2023/10/29 01:39:41;;;;;;;13.48;8.05;;;;;;;8.72;100.00;98602.53;5033432;28;20543;-85
2023/10/29 01:42:06;;;;;;;11.05;8.02;;;;;;;8.64;100.00;98590.00;5033091;28;20036;-84
2023/10/29 01:44:31;;;;;;;12.40;7.35;;;;;;;8.89;100.00;98631.03;5033233;28;20132;-85
2023/10/29 01:46:57;;;;;;;12.73;8.30;;;;;;;8.83;100.00;98623.56;5033034;28;20038;-85
2023/10/29 01:49:22;;;;;;;12.77;7.95;;;;;;;8.85;100.00;98623.47;5016551;28;20152;-84
2023/10/29 01:51:49;;;;;;;9.25;7.45;;;;;;;8.86;100.00;98623.41;5019719;28;20038;-85
2023/10/29 01:54:15;;;;;;;9.70;7.25;;;;;;;8.58;100.00;98579.13;5014240;28;20088;-85
2023/10/29 01:56:41;;;;;;;8.75;6.85;;;;;;;8.59;100.00;98573.00;5015656;28;20026;-85
2023/10/29 01:59:07;;;;;;;12.80;7.28;;;;;;;8.96;100.00;98619.34;5015586;28;20056;-85
2023/10/29 02:01:32;;;;;;;10.93;7.05;;;;;;;9.00;100.00;98618.25;5015585;28;20038;-85
2023/10/29 02:03:57;;;;;;;11.40;7.82;;;;;;;8.92;100.00;98585.84;5014152;28;20026;-85
2023/10/29 02:06:23;;;;;;;9.20;7.32;;;;;;;8.90;100.00;98583.34;5015435;28;20068;-85
2023/10/29 02:08:48;;;;;;;10.57;7.53;;;;;;;8.96;100.00;98589.94;5015464;28;20026;-85
2023/10/29 02:11:14;;;;;;;11.02;7.53;;;;;;;9.16;100.00;98602.63;5015182;28;20421;-85
2023/10/29 02:13:39;;;;;;;15.40;8.27;;;;;;;9.21;100.00;98594.56;5014213;28;20386;-85
2023/10/29 02:16:05;;;;;;;10.73;7.13;;;;;;;9.35;100.00;98610.19;5014027;28;20461;-85
2023/10/29 02:18:30;;;;;;;11.05;7.63;;;;;;;9.33;100.00;98596.47;5015359;28;20049;-85
2023/10/29 02:20:55;;;;;;;11.35;7.38;;;;;;;9.46;100.00;98613.00;5013923;28;20033;-85
2023/10/29 02:23:21;;;;;;;9.30;7.38;;;;;;;9.46;100.00;98604.38;5015636;28;20064;-85
2023/10/29 02:25:46;;;;;;;9.82;6.70;;;;;;;9.55;100.00;98608.19;5015483;28;20405;-85
2023/10/29 02:28:11;;;;;;;9.65;6.80;;;;;;;9.42;100.00;98582.91;5014917;28;20393;-85
2023/10/29 02:30:37;;;;;;;9.77;6.78;;;;;;;9.61;100.00;98613.06;5013816;28;20029;-85
2023/10/29 02:33:02;;;;;;;9.40;6.57;;;;;;;9.64;100.00;98618.88;5013693;28;20049;-85
2023/10/29 02:35:28;;;;;;;10.48;6.85;;;;;;;9.48;100.00;98594.72;5013781;28;20030;-85
2023/10/29 02:37:53;;;;;;;11.48;6.78;;;;;;;9.54;100.00;98596.97;5021989;28;20076;-85
2023/10/29 02:40:19;;;;;;;10.68;7.28;;;;;;;9.60;100.00;98608.75;5034453;28;20116;-85
2023/10/29 02:42:45;;;;;;;10.95;6.60;;;;;;;9.65;100.00;98617.09;5034547;28;20457;-85
2023/10/29 02:45:10;;;;;;;9.82;7.57;;;;;;;9.44;100.00;98581.09;5034900;28;20033;-85
2023/10/29 02:47:36;;;;;;;9.93;7.38;;;;;;;9.77;100.00;98631.16;5034676;28;20075;-84
2023/10/29 02:50:01;;;;;;;10.95;7.10;;;;;;;9.62;100.00;98596.50;5034360;28;20033;-85
2023/10/29 02:52:26;;;;;;;13.15;8.32;;;;;;;9.92;100.00;98620.69;5034563;28;20496;-85
2023/10/29 02:54:52;;;;;;;12.40;7.72;;;;;;;9.86;100.00;98615.84;5034364;28;20047;-85
2023/10/29 02:57:17;;;;;;;12.35;8.40;;;;;;;9.61;100.00;98561.88;5034098;28;20034;-85
2023/10/29 02:59:43;;;;;;;11.00;7.75;;;;;;;9.99;100.00;98631.56;5034495;28;20030;-85
2023/10/29 03:02:08;;;;;;;13.82;7.82;;;;;;;9.95;100.00;98617.91;5034225;28;20052;-85
2023/10/29 03:04:33;;;;;;;13.48;7.50;;;;;;;9.85;100.00;98600.31;5033069;28;20484;-85
2023/10/29 03:06:59;;;;;;;10.43;7.22;;;;;;;10.01;100.00;98632.28;5033962;28;20061;-85
2023/10/29 03:09:24;;;;;;;9.82;7.53;;;;;;;9.92;100.00;98597.25;5034122;28;20026;-85
2023/10/29 03:11:50;;;;;;;9.52;6.75;;;;;;;9.96;100.00;98616.97;5034280;28;20037;-85
2023/10/29 03:14:15;;;;;;;13.18;8.18;;;;;;;9.97;100.00;98629.03;5032672;28;20469;-85
2023/10/29 03:16:40;;;;;;;8.48;7.03;;;;;;;9.79;100.00;98601.53;5034136;28;20424;-85
2023/10/29 03:19:06;;;;;;;10.70;7.13;;;;;;;9.88;100.00;98624.38;5033823;28;20028;-85
2023/10/29 03:21:31;;;;;;;8.73;6.60;;;;;;;9.81;100.00;98602.28;5033853;28;20402;-85
2023/10/29 03:23:56;;;;;;;8.43;6.00;;;;;;;9.94;100.00;98603.22;5033831;28;20358;-85
2023/10/29 03:26:22;;;;;;;9.95;6.55;;;;;;;9.91;100.00;98605.19;5033631;28;20457;-85
2023/10/29 03:28:48;;;;;;;12.57;6.13;;;;;;;9.94;100.00;98604.97;5034144;28;20525;-84
2023/10/29 03:31:14;;;;;;;10.43;6.32;;;;;;;10.14;100.00;98637.59;5033701;28;20075;-85
2023/10/29 03:33:40;;;;;;;11.95;6.07;;;;;;;10.02;100.00;98623.53;5032584;28;20021;-85
2023/10/29 03:36:06;;;;;;;10.60;6.03;;;;;;;9.75;100.00;98561.88;5032066;28;20040;-85
2023/10/29 03:38:32;;;;;;;10.27;6.30;;;;;;;9.91;100.00;98589.56;5032332;28;20060;-85
2023/10/29 03:40:57;;;;;;;10.45;7.07;;;;;;;9.79;100.00;98574.69;5032138;28;20395;-85
2023/10/29 03:43:23;;;;;;;9.38;6.35;;;;;;;10.06;100.00;98601.63;5033488;28;20034;-85
2023/10/29 03:45:48;;;;;;;10.98;6.72;;;;;;;10.08;100.00;98593.75;5033398;28;20028;-85
2023/10/29 03:48:15;;;;;;;12.85;6.35;;;;;;;10.10;100.00;98604.88;5032420;28;20025;-84
2023/10/29 03:50:40;;;;;;;10.23;6.70;;;;;;;9.70;100.00;98556.13;5033434;28;20053;-85
2023/10/29 03:53:06;;;;;;;8.02;5.53;;;;;;;9.72;100.00;98566.41;5033079;28;20060;-84
2023/10/29 03:55:32;;;;;;;8.43;5.60;;;;;;;9.75;100.00;98579.25;5033099;28;20056;-85
2023/10/29 03:57:57;;;;;;;9.82;6.13;;;;;;;9.76;100.00;98599.13;5033438;28;20119;-85
2023/10/29 04:00:23;;;;;;;9.32;6.13;;;;;;;9.71;100.00;98596.78;5032959;28;20469;-85
2023/10/29 04:02:48;;;;;;;12.85;7.00;;;;;;;9.65;100.00;98596.31;5031973;28;20033;-84
2023/10/29 04:05:16;;;;;;;9.18;6.28;;;;;;;9.54;100.00;98594.38;5032768;28;20060;-84
2023/10/29 04:07:41;;;;;;;13.15;7.32;;;;;;;9.55;100.00;98603.00;5033115;28;20026;-84
2023/10/29 04:10:07;;;;;;;9.68;6.85;;;;;;;9.45;100.00;98594.91;5032707;28;20021;-84
2023/10/29 04:12:33;;;;;;;9.15;6.00;;;;;;;9.27;100.00;98591.63;5033165;28;20090;-85
2023/10/29 04:14:58;;;;;;;8.10;5.88;;;;;;;9.23;100.00;98592.75;5033021;28;20026;-84
2023/10/29 04:17:24;;;;;;;12.07;6.72;;;;;;;9.32;100.00;98607.78;5032734;28;20036;-84
2023/10/29 04:19:49;;;;;;;9.80;5.72;;;;;;;9.11;100.00;98570.06;5032802;28;20029;-84
2023/10/29 04:22:15;;;;;;;8.18;5.35;;;;;;;9.02;100.00;98574.03;5032603;28;20095;-84
2023/10/29 04:24:41;;;;;;;7.75;5.28;;;;;;;8.98;100.00;98570.75;5032681;28;20503;-84
2023/10/29 04:27:06;;;;;;;7.80;5.60;;;;;;;9.07;100.00;98590.19;5032967;28;20069;-84
2023/10/29 04:29:32;;;;;;;7.90;5.15;;;;;;;9.08;100.00;98606.59;5031445;28;20029;-84
2023/10/29 04:31:57;;;;;;;8.50;5.47;;;;;;;8.83;100.00;98574.22;5031516;28;20045;-85
2023/10/29 04:34:22;;;;;;;7.00;5.18;;;;;;;8.75;100.00;98571.22;5032334;28;20106;-84
2023/10/29 04:36:51;;;;;;;7.93;5.30;;;;;;;8.68;100.00;98556.91;5032424;28;20079;-84
2023/10/29 04:39:19;;;;;;;7.45;4.97;;;;;;;8.78;100.00;98591.00;5032140;28;20041;-84
2023/10/29 04:41:45;;;;;;;9.73;5.57;;;;;;;8.78;100.00;98597.03;5032454;28;20492;-84
2023/10/29 04:44:11;;;;;;;8.27;5.97;;;;;;;8.45;100.00;98553.00;5032417;28;20100;-84
2023/10/29 04:46:36;;;;;;;9.75;5.40;;;;;;;8.57;100.00;98590.44;5032605;28;20109;-84
2023/10/29 04:49:02;;;;;;;8.25;5.88;;;;;;;8.75;100.00;98625.75;5031156;28;20033;-84
2023/10/29 04:51:29;;;;;;;7.30;5.80;;;;;;;8.41;100.00;98583.47;5032124;28;20159;-84
2023/10/29 04:53:54;;;;;;;6.90;4.97;;;;;;;8.76;100.00;98635.19;5030907;28;20041;-84
2023/10/29 04:56:20;;;;;;;8.38;5.28;;;;;;;8.71;100.00;98616.44;5030825;28;20405;-84
2023/10/29 04:58:45;;;;;;;7.13;5.32;;;;;;;8.74;100.00;98619.72;5032332;28;20112;-84
2023/10/29 05:01:10;;;;;;;7.15;5.30;;;;;;;8.84;100.00;98625.22;5031968;28;20033;-84
2023/10/29 05:03:36;;;;;;;7.15;4.50;;;;;;;8.77;100.00;98597.94;5032121;28;20028;-84
2023/10/29 05:06:01;;;;;;;9.38;4.97;;;;;;;8.90;100.00;98601.53;5031997;28;20056;-84
2023/10/29 05:08:26;;;;;;;7.00;4.85;;;;;;;8.94;100.00;98610.81;5031685;28;20096;-84
2023/10/29 05:10:52;;;;;;;7.43;4.78;;;;;;;8.75;100.00;98558.25;5032139;28;20026;-84
2023/10/29 05:13:17;;;;;;;9.48;5.07;;;;;;;8.77;100.00;98558.19;5031947;28;20070;-84
2023/10/29 05:15:43;;;;;;;10.95;4.97;;;;;;;9.03;100.00;98596.47;5030736;28;20119;-84
2023/10/29 05:18:08;;;;;;;8.65;4.82;;;;;;;9.11;100.00;98585.66;5031675;28;20072;-84
2023/10/29 05:20:34;;;;;;;9.02;4.78;;;;;;;9.00;100.00;98558.50;5031931;28;20032;-84
2023/10/29 05:23:00;;;;;;;6.75;4.40;;;;;;;9.00;100.00;98553.31;5032063;28;20052;-84
2023/10/29 05:25:25;;;;;;;7.85;4.75;;;;;;;9.18;100.00;98576.56;5031771;28;20057;-84
2023/10/29 05:27:55;;;;;;;9.73;5.28;;;;;;;9.20;100.00;98559.97;5032043;28;20044;-84
2023/10/29 05:30:20;;;;;;;6.90;4.20;;;;;;;9.37;100.00;98577.16;5031677;28;20032;-84
2023/10/29 05:32:46;;;;;;;6.78;5.18;;;;;;;9.30;100.00;98554.22;5031882;28;20018;-84
2023/10/29 05:35:12;;;;;;;7.25;4.80;;;;;;;9.30;100.00;98544.66;5031524;28;20033;-83
2023/10/29 05:37:37;;;;;;;12.70;5.28;;;;;;;9.40;100.00;98542.38;5031478;28;20077;-84
2023/10/29 05:40:04;;;;;;;7.28;5.25;;;;;;;9.24;100.00;98512.09;5031947;28;20103;-84
2023/10/29 05:42:31;;;;;;;14.25;5.10;;;;;;;9.31;100.00;98519.50;5030368;28;20037;-84
2023/10/29 05:44:56;;;;;;;8.25;4.63;;;;;;;9.17;100.00;98518.56;5030348;28;20116;-84
2023/10/29 05:47:22;;;;;;;5.97;4.45;;;;;;;9.23;100.00;98536.41;5031778;28;20060;-84
2023/10/29 05:49:47;;;;;;;6.30;4.38;;;;;;;9.31;100.00;98554.13;5031609;28;20120;-84
2023/10/29 05:52:12;;;;;;;15.02;8.93;;;;;;;9.11;100.00;98528.50;5029976;28;20461;-84
2023/10/29 05:54:38;;;;;;;14.25;8.63;;;;;;;8.91;100.00;98480.31;5031796;28;20088;-84
2023/10/29 05:57:03;;;;;;;17.17;8.68;;;;;;;9.33;100.00;98552.28;5031697;28;20477;-84
2023/10/29 05:59:29;;;;;;;9.68;6.40;;;;;;;9.29;100.00;98553.38;5030377;28;20022;-84
2023/10/29 06:01:54;;;;;;;9.48;5.20;;;;;;;9.38;100.00;98568.44;5031650;28;20033;-84
2023/10/29 06:04:20;;;;;;;9.95;5.32;;;;;;;9.25;100.00;98557.94;5031378;28;20044;-84
2023/10/29 06:06:45;;;;;;;9.27;4.40;;;;;;;9.25;100.00;98560.53;5030052;28;20489;-84
2023/10/29 06:09:11;;;;;;;10.45;4.40;;;;;;;9.18;100.00;98551.41;5031461;28;20044;-84
2023/10/29 06:11:40;;;;;;;7.10;4.75;;;;;;;9.32;100.00;98562.78;5032219;28;20029;-84
2023/10/29 06:14:05;;;;;;;10.18;5.30;;;;;;;9.31;100.00;98564.50;5035329;28;20025;-85
2023/10/29 06:16:30;;;;;;;6.68;4.45;;;;;;;9.11;100.00;98531.09;5034955;28;20025;-84
2023/10/29 06:18:56;;;;;;;8.05;4.43;;;;;;;9.17;100.00;98541.13;5035088;28;20047;-84
2023/10/29 06:21:21;;;;;;;9.80;4.57;;;;;;;9.28;100.00;98554.31;5034776;28;20186;-84
2023/10/29 06:23:47;;;;;;;15.75;4.72;;;;;;;8.92;100.00;98513.13;5033922;28;20025;-84
2023/10/29 06:26:12;;;;;;;7.50;4.15;;;;;;;9.29;100.00;98568.16;5034860;28;20040;-84
2023/10/29 06:28:37;;;;;;;8.63;4.53;;;;;;;9.18;100.00;98542.78;5035012;28;20021;-84
2023/10/29 06:31:04;;;;;;;7.07;4.63;;;;;;;9.38;100.00;98580.59;5034963;28;20025;-84
2023/10/29 06:33:29;;;;;;;10.35;7.45;;;;;;;9.42;100.00;98582.91;5034708;28;20485;-84
2023/10/29 06:35:57;;;;;;;6.97;5.25;;;;;;;9.38;100.00;98576.22;5034669;28;20029;-84
2023/10/29 06:38:24;;;;;;;9.25;5.70;;;;;;;9.38;100.00;98568.44;5034373;28;20045;-84
2023/10/29 06:40:49;;;;;;;13.63;7.40;;;;;;;9.35;100.00;98558.22;5034839;28;20034;-84
2023/10/29 06:43:14;;;;;;;15.32;8.75;;;;;;;9.43;100.00;98555.16;5034555;28;20025;-84
2023/10/29 06:45:40;;;;;;;14.80;9.88;;;;;;;9.45;100.00;98572.34;5033409;28;20033;-84
2023/10/29 06:48:05;;;;;;;28.40;18.67;;;;;;;9.74;100.00;98593.19;5033885;28;20069;-84
2023/10/29 06:50:31;;;;;;;27.85;15.45;;;;;;;9.65;100.00;98588.50;5034266;28;20148;-84
2023/10/29 06:52:56;;;;;;;11.23;7.78;;;;;;;9.78;100.00;98602.47;5034508;28;20480;-84
2023/10/29 06:55:23;;;;;;;58.35;35.45;;;;;;;9.59;100.00;98560.28;5034231;28;20021;-84
2023/10/29 06:57:48;;;;;;;17.38;10.23;;;;;;;9.59;100.00;98568.94;5033193;28;20519;-84
2023/10/29 07:00:15;;;;;;;12.05;7.43;;;;;;;9.84;100.00;98599.50;5032837;28;20045;-84
2023/10/29 07:02:40;;;;;;;9.23;6.63;;;;;;;9.88;100.00;98602.75;5034368;28;20060;-84
2023/10/29 07:05:06;;;;;;;7.68;5.82;;;;;;;9.63;100.00;98554.81;5034157;28;20029;-84
2023/10/29 07:07:32;;;;;;;6.65;4.40;;;;;;;9.58;100.00;98559.47;5033821;28;20036;-84
2023/10/29 07:09:57;;;;;;;5.85;4.57;;;;;;;10.00;100.00;98613.25;5034340;28;20029;-84
2023/10/29 07:12:23;;;;;;;8.50;5.00;;;;;;;10.12;100.00;98601.25;5034046;28;20458;-84
2023/10/29 07:14:49;;;;;;;5.95;3.85;;;;;;;10.27;100.00;98609.06;5032863;28;20029;-84
2023/10/29 07:17:14;;;;;;;11.00;5.78;;;;;;;10.39;100.00;98613.53;5033968;28;20532;-83
2023/10/29 07:19:40;;;;;;;15.68;9.35;;;;;;;10.51;100.00;98607.56;5033996;28;20105;-84
2023/10/29 07:22:05;;;;;;;9.65;6.25;;;;;;;10.73;100.00;98626.06;5034204;28;20025;-83
2023/10/29 07:24:34;;;;;;;7.30;3.80;;;;;;;10.61;100.00;98595.59;5031169;28;20025;-84
2023/10/29 07:27:00;;;;;;;6.38;3.67;;;;;;;10.93;100.00;98603.97;5033933;28;20025;-84
2023/10/29 07:29:25;;;;;;;5.57;4.00;;;;;;;10.99;100.00;98590.53;5033647;28;20431;-83
2023/10/29 07:31:50;;;;;;;8.70;3.38;;;;;;;11.06;100.00;98585.78;5033793;28;20452;-83
2023/10/29 07:34:16;;;;;;;6.68;3.08;;;;;;;11.35;100.00;98611.69;5033368;28;20104;-84
2023/10/29 07:36:44;;;;;;;4.85;3.05;;;;;;;11.45;100.00;98616.19;5033656;28;20112;-84
2023/10/29 07:39:09;;;;;;;7.82;3.47;;;;;;;11.51;100.00;98575.84;5032088;28;20056;-83
2023/10/29 07:41:35;;;;;;;5.53;3.70;;;;;;;11.82;100.00;98582.41;5033470;28;20033;-83
2023/10/29 07:44:00;;;;;;;9.18;3.40;;;;;;;12.25;100.00;98618.59;5033601;28;20030;-83
2023/10/29 07:46:25;;;;;;;3.63;2.72;;;;;;;12.20;100.00;98558.06;5033275;28;20040;-83
2023/10/29 07:48:51;;;;;;;6.55;3.60;;;;;;;12.59;100.00;98601.38;5033354;28;20071;-84
2023/10/29 07:51:16;;;;;;;7.50;3.50;;;;;;;12.84;100.00;98607.47;5032052;28;20021;-84
2023/10/29 07:53:41;;;;;;;6.40;3.53;;;;;;;12.93;100.00;98615.47;5033527;28;20039;-83
2023/10/29 07:56:08;;;;;;;10.27;3.50;;;;;;;12.79;100.00;98602.56;5033445;28;20053;-84
2023/10/29 07:58:39;;;;;;;7.22;3.58;;;;;;;12.71;100.00;98594.44;5033156;28;20040;-84
2023/10/29 08:01:15;;;;;;;5.28;3.20;;;;;;;12.47;100.00;98578.75;5033316;28;20055;-84
2023/10/29 08:03:41;;;;;;;7.28;3.47;;;;;;;12.62;100.00;98588.09;5032907;28;20151;-84
2023/10/29 08:06:07;;;;;;;5.65;3.40;;;;;;;12.63;100.00;98599.38;5033188;28;20032;-83
2023/10/29 08:08:32;;;;;;;5.07;3.15;;;;;;;12.52;100.00;98600.16;5032954;28;20033;-83
2023/10/29 08:10:58;;;;;;;4.72;3.25;;;;;;;12.46;100.00;98571.88;5033125;28;20026;-84
2023/10/29 08:13:23;;;;;;;6.70;2.85;;;;;;;12.67;100.00;98591.22;5032715;28;20113;-83
2023/10/29 08:15:48;;;;;;;6.60;3.20;;;;;;;12.73;100.00;98603.84;5031513;28;20025;-84
2023/10/29 08:18:14;;;;;;;8.63;3.40;;;;;;;12.49;100.00;98561.22;5032818;28;20032;-84
2023/10/29 08:20:40;;;;;;;7.90;3.60;;;;;;;12.39;100.00;98565.44;5032783;28;20053;-84
2023/10/29 08:23:05;;;;;;;5.38;3.03;;;;;;;12.54;100.00;98585.22;5031640;28;20566;-84
2023/10/29 08:25:31;;;;;;;5.63;3.47;;;;;;;12.47;100.00;98561.31;5032946;28;20037;-84
2023/10/29 08:27:56;;;;;;;7.30;3.47;;;;;;;12.60;100.00;98571.72;5032836;28;20029;-84
2023/10/29 08:30:22;;;;;;;4.60;3.08;;;;;;;12.86;100.00;98579.44;5032472;28;20026;-84
2023/10/29 08:32:47;;;;;;;5.88;3.25;;;;;;;12.75;100.00;98546.25;5032653;28;20385;-84
2023/10/29 08:35:12;;;;;;;8.60;3.85;;;;;;;12.87;100.00;98560.22;5032063;28;20466;-83
2023/10/29 08:37:38;;;;;;;5.30;3.05;;;;;;;12.91;100.00;98552.03;5032241;28;20045;-84
2023/10/29 08:40:04;;;;;;;7.55;2.85;;;;;;;12.86;100.00;98538.47;5032603;28;20021;-84
2023/10/29 08:42:30;;;;;;;4.85;2.75;;;;;;;13.06;100.00;98567.50;5030947;28;20026;-84
2023/10/29 08:44:56;;;;;;;5.55;2.95;;;;;;;13.10;100.00;98572.41;5031069;28;20048;-84
2023/10/29 08:47:22;;;;;;;4.07;2.85;;;;;;;13.05;100.00;98540.53;5032287;28;20029;-84
2023/10/29 08:49:47;;;;;;;3.47;2.47;;;;;;;13.35;100.00;98576.66;5032514;28;20033;-84
2023/10/29 08:52:14;;;;;;;5.50;3.67;;;;;;;13.50;100.00;98566.00;5032239;28;20038;-84
2023/10/29 08:54:39;;;;;;;5.10;2.80;;;;;;;13.43;100.00;98537.69;5032259;28;20534;-84
2023/10/29 08:57:05;;;;;;;4.28;2.50;;;;;;;13.49;99.95;98531.19;5032103;28;20029;-84
2023/10/29 08:59:31;;;;;;;4.13;2.33;;;;;;;13.63;100.00;98544.03;5030008;28;20481;-84
2023/10/29 09:01:56;;;;;;;4.57;2.72;;;;;;;13.79;99.73;98553.31;5030307;28;20052;-83
2023/10/29 09:04:22;;;;;;;4.43;2.17;;;;;;;13.68;99.44;98526.19;5031416;28;20543;-84
2023/10/29 09:06:48;;;;;;;3.53;2.30;;;;;;;13.95;99.94;98572.94;5030243;28;20489;-84
2023/10/29 09:09:14;;;;;;;3.42;2.20;;;;;;;14.01;98.84;98586.50;5031677;28;20025;-84
2023/10/29 09:11:39;;;;;;;4.85;2.25;;;;;;;13.74;99.60;98551.06;5029970;28;20120;-83
2023/10/29 09:14:07;;;;;;;3.85;2.25;;;;;;;13.89;98.92;98585.66;5030110;28;20033;-84
2023/10/29 09:16:33;;;;;;;3.35;2.13;;;;;;;13.80;98.17;98550.56;5031036;28;20488;-84
2023/10/29 09:18:59;;;;;;;4.75;2.35;;;;;;;14.00;99.35;98584.84;5030151;28;20032;-83
2023/10/29 09:21:24;;;;;;;4.28;2.20;;;;;;;13.93;99.54;98542.59;5029947;28;20029;-84
2023/10/29 09:23:50;;;;;;;4.13;2.72;;;;;;;14.27;98.08;98598.41;5031453;28;20104;-83
2023/10/29 09:26:16;;;;;;;4.22;2.38;;;;;;;14.17;96.26;98571.28;5031424;28;20029;-83
2023/10/29 09:28:42;;;;;;;3.45;2.38;;;;;;;14.24;96.95;98596.00;5031037;28;20549;-84
2023/10/29 09:31:08;;;;;;;3.47;2.45;;;;;;;14.27;96.76;98587.09;5031236;28;20412;-84
2023/10/29 09:33:33;;;;;;;3.88;2.70;;;;;;;14.20;96.60;98573.66;5031215;28;20080;-84
2023/10/29 09:36:00;;;;;;;4.95;2.80;;;;;;;14.22;96.33;98579.59;5031276;28;20467;-84
2023/10/29 09:38:25;;;;;;;4.05;2.45;;;;;;;14.17;96.29;98564.25;5030978;28;20048;-84
2023/10/29 09:40:51;;;;;;;3.60;2.38;;;;;;;14.18;95.27;98568.53;5031165;28;20384;-84
2023/10/29 09:43:19;;;;;;;3.30;2.50;;;;;;;14.17;96.11;98564.25;5029400;28;20425;-84
2023/10/29 09:45:46;;;;;;;4.88;3.10;;;;;;;14.11;95.89;98566.50;5031373;28;20124;-84
2023/10/29 09:48:15;;;;;;;5.78;2.95;;;;;;;13.88;96.76;98531.66;5034706;28;20034;-84
2023/10/29 09:50:43;;;;;;;2.63;2.42;;;;;;;14.12;96.98;98562.97;5034959;28;20507;-83
2023/10/29 09:53:10;;;;;;;3.67;2.55;;;;;;;14.17;97.32;98573.91;5033680;28;20036;-84
2023/10/29 09:55:38;;;;;;;5.35;2.83;;;;;;;13.83;97.10;98510.25;5034655;28;20112;-84
2023/10/29 09:58:04;;;;;;;4.35;2.88;;;;;;;13.86;95.55;98525.69;5033495;28;20116;-84
2023/10/29 10:00:30;;;;;;;2.72;2.47;;;;;;;13.82;95.28;98524.28;5033541;28;20121;-84
2023/10/29 10:02:56;;;;;;;4.78;2.67;;;;;;;13.66;95.35;98516.81;5034989;28;20554;-83
2023/10/29 10:05:24;;;;;;;2.63;2.40;;;;;;;13.63;96.35;98514.41;5034719;28;20053;-84
2023/10/29 10:07:51;;;;;;;3.95;2.75;;;;;;;13.59;96.93;98515.59;5034683;28;20029;-84
2023/10/29 10:10:19;;;;;;;6.22;2.85;;;;;;;13.57;96.76;98515.72;5032991;28;20060;-83
2023/10/29 10:12:51;;;;;;;4.05;2.80;;;;;;;13.45;97.55;98498.34;5034195;28;20052;-83
2023/10/29 10:15:20;;;;;;;3.78;2.65;;;;;;;13.76;98.24;98530.81;5033332;28;20022;-83
2023/10/29 10:18:01;;;;;;;4.68;2.80;;;;;;;13.61;97.95;98504.06;5034481;28;20159;-83
2023/10/29 10:20:27;;;;;;;4.82;2.58;;;;;;;13.76;97.85;98538.69;5032193;28;20116;-83
2023/10/29 10:23:00;;;;;;;4.95;2.63;;;;;;;13.51;98.01;98494.44;5032705;28;20117;-84
2023/10/29 10:25:27;;;;;;;4.88;2.80;;;;;;;13.48;98.64;98487.63;5034344;28;20029;-83
2023/10/29 10:27:55;;;;;;;3.35;2.50;;;;;;;13.57;97.71;98494.81;5034520;28;20425;-83
2023/10/29 10:30:39;;;;;;;4.57;2.60;;;;;;;13.59;96.56;98469.34;5032411;28;20370;-83
2023/10/29 10:33:18;;;;;;;5.15;3.10;;;;;;;14.09;96.96;98522.13;5032041;28;20029;-83
2023/10/29 10:35:45;;;;;;;3.75;2.85;;;;;;;14.38;96.35;98519.81;5034051;28;20036;-83
2023/10/29 10:38:12;;;;;;;5.90;2.70;;;;;;;14.45;94.24;98518.38;5034382;28;20374;-83
2023/10/29 10:40:38;;;;;;;5.65;2.88;;;;;;;14.65;95.53;98521.19;5033936;28;20104;-83
2023/10/29 10:43:06;;;;;;;5.15;3.25;;;;;;;14.51;95.52;98490.88;5034074;28;20108;-83
2023/10/29 10:45:32;;;;;;;3.95;2.92;;;;;;;14.60;94.92;98497.97;5033837;28;20026;-83
2023/10/29 10:48:00;;;;;;;3.92;3.08;;;;;;;14.63;94.74;98482.00;5033890;28;20036;-83
2023/10/29 10:50:27;;;;;;;4.90;2.90;;;;;;;14.65;93.84;98489.72;5032692;28;20022;-83
2023/10/29 10:52:54;;;;;;;4.70;2.63;;;;;;;14.55;94.60;98476.56;5034105;28;20029;-84
2023/10/29 10:55:20;;;;;;;3.42;2.60;;;;;;;14.53;94.71;98494.19;5033997;28;20025;-83
2023/10/29 10:57:50;;;;;;;3.20;2.42;;;;;;;14.36;96.19;98458.00;5033342;28;20534;-83
2023/10/29 11:00:16;;;;;;;6.53;2.78;;;;;;;14.67;96.47;98516.66;5033716;28;20064;-84
2023/10/29 11:02:43;;;;;;;5.78;3.25;;;;;;;14.60;97.40;98473.56;5033615;28;20029;-83
2023/10/29 11:05:16;;;;;;;4.35;2.78;;;;;;;14.97;97.35;98505.44;5034041;28;20413;-83
2023/10/29 11:07:45;;;;;;;6.80;3.30;;;;;;;15.00;95.97;98485.97;5033408;28;20034;-83
2023/10/29 11:10:15;;;;;;;4.22;2.95;;;;;;;15.14;95.80;98504.03;5034021;28;20041;-83
2023/10/29 11:12:41;;;;;;;4.40;3.03;;;;;;;15.14;96.24;98498.78;5033212;28;20108;-83
2023/10/29 11:15:19;;;;;;;4.03;2.85;;;;;;;15.18;95.47;98497.56;5033160;28;20497;-83
2023/10/29 11:17:58;;;;;;;3.58;2.78;;;;;;;15.14;94.97;98481.25;5033405;28;20017;-83
2023/10/29 11:20:38;;;;;;;3.40;2.65;;;;;;;15.13;95.86;98477.00;5032156;28;20540;-83
2023/10/29 11:23:14;;;;;;;4.85;2.80;;;;;;;14.83;96.76;98429.72;5033342;28;20029;-83
2023/10/29 11:25:41;;;;;;;5.28;3.15;;;;;;;15.17;96.21;98467.91;5031649;28;20037;-83